sensor_id;sensor_type;location;lat;lon;timestamp;P1;durP1;ratioP1;P2;durP2;ratioP2
76023;SDS011;64719;52.124;6.226;2023-05-19T00:00:54;12.65;;;4.75;;
76023;SDS011;64719;52.124;6.226;2023-05-19T00:05:47;13.13;;;4.95;;
76023;SDS011;64719;52.124;6.226;2023-05-19T00:08:14;11.52;;;5.38;;
76023;SDS011;64719;52.124;6.226;2023-05-19T00:10:42;9.63;;;4.55;;
76023;SDS011;64719;52.124;6.226;2023-05-19T00:13:09;11.75;;;4.88;;
76023;SDS011;64719;52.124;6.226;2023-05-19T00:15:36;11.50;;;4.63;;
76023;SDS011;64719;52.124;6.226;2023-05-19T00:18:05;9.98;;;4.65;;
76023;SDS011;64719;52.124;6.226;2023-05-19T00:20:32;12.18;;;4.80;;
76023;SDS011;64719;52.124;6.226;2023-05-19T00:22:59;9.93;;;5.13;;
76023;SDS011;64719;52.124;6.226;2023-05-19T00:25:25;12.38;;;5.20;;
76023;SDS011;64719;52.124;6.226;2023-05-19T00:27:52;14.05;;;5.13;;
76023;SDS011;64719;52.124;6.226;2023-05-19T00:30:18;12.52;;;5.35;;
76023;SDS011;64719;52.124;6.226;2023-05-19T00:32:46;10.25;;;5.10;;
76023;SDS011;64719;52.124;6.226;2023-05-19T00:35:14;10.57;;;4.78;;
76023;SDS011;64719;52.124;6.226;2023-05-19T00:37:41;10.85;;;5.03;;
76023;SDS011;64719;52.124;6.226;2023-05-19T00:40:08;15.57;;;5.65;;
76023;SDS011;64719;52.124;6.226;2023-05-19T00:42:35;9.68;;;5.47;;
76023;SDS011;64719;52.124;6.226;2023-05-19T00:45:02;11.48;;;5.35;;
76023;SDS011;64719;52.124;6.226;2023-05-19T00:47:28;12.85;;;5.00;;
76023;SDS011;64719;52.124;6.226;2023-05-19T00:49:55;9.52;;;5.10;;
76023;SDS011;64719;52.124;6.226;2023-05-19T00:52:23;9.35;;;5.38;;
76023;SDS011;64719;52.124;6.226;2023-05-19T00:54:50;12.23;;;4.88;;
76023;SDS011;64719;52.124;6.226;2023-05-19T00:57:17;11.70;;;4.88;;
76023;SDS011;64719;52.124;6.226;2023-05-19T00:59:44;9.82;;;4.90;;
76023;SDS011;64719;52.124;6.226;2023-05-19T01:02:11;7.90;;;4.60;;
76023;SDS011;64719;52.124;6.226;2023-05-19T01:04:39;12.68;;;5.05;;
76023;SDS011;64719;52.124;6.226;2023-05-19T01:07:07;11.13;;;5.30;;
76023;SDS011;64719;52.124;6.226;2023-05-19T01:09:36;15.15;;;5.55;;
76023;SDS011;64719;52.124;6.226;2023-05-19T01:12:02;8.63;;;4.80;;
76023;SDS011;64719;52.124;6.226;2023-05-19T01:14:29;13.93;;;5.60;;
76023;SDS011;64719;52.124;6.226;2023-05-19T01:16:57;11.57;;;4.80;;
76023;SDS011;64719;52.124;6.226;2023-05-19T01:19:32;10.52;;;5.18;;
76023;SDS011;64719;52.124;6.226;2023-05-19T01:22:17;10.13;;;5.03;;
76023;SDS011;64719;52.124;6.226;2023-05-19T01:28:10;11.05;;;5.53;;
76023;SDS011;64719;52.124;6.226;2023-05-19T01:30:50;11.68;;;5.47;;
76023;SDS011;64719;52.124;6.226;2023-05-19T01:33:18;9.75;;;4.88;;
76023;SDS011;64719;52.124;6.226;2023-05-19T01:35:47;11.98;;;6.05;;
76023;SDS011;64719;52.124;6.226;2023-05-19T01:38:16;10.07;;;5.38;;
76023;SDS011;64719;52.124;6.226;2023-05-19T01:40:44;13.80;;;6.45;;
76023;SDS011;64719;52.124;6.226;2023-05-19T01:43:13;11.23;;;6.57;;
76023;SDS011;64719;52.124;6.226;2023-05-19T01:45:44;12.23;;;6.22;;
76023;SDS011;64719;52.124;6.226;2023-05-19T01:48:13;13.70;;;6.50;;
76023;SDS011;64719;52.124;6.226;2023-05-19T01:50:40;13.10;;;6.30;;
76023;SDS011;64719;52.124;6.226;2023-05-19T01:53:08;11.23;;;6.47;;
76023;SDS011;64719;52.124;6.226;2023-05-19T01:55:44;15.10;;;7.28;;
76023;SDS011;64719;52.124;6.226;2023-05-19T01:58:16;17.05;;;7.43;;
76023;SDS011;64719;52.124;6.226;2023-05-19T02:00:50;12.77;;;6.32;;
76023;SDS011;64719;52.124;6.226;2023-05-19T02:03:24;14.05;;;6.10;;
76023;SDS011;64719;52.124;6.226;2023-05-19T02:05:58;13.77;;;6.75;;
76023;SDS011;64719;52.124;6.226;2023-05-19T02:08:33;15.40;;;6.80;;
76023;SDS011;64719;52.124;6.226;2023-05-19T02:11:09;22.27;;;7.43;;
76023;SDS011;64719;52.124;6.226;2023-05-19T02:13:40;17.20;;;6.93;;
76023;SDS011;64719;52.124;6.226;2023-05-19T02:16:09;13.52;;;6.43;;
76023;SDS011;64719;52.124;6.226;2023-05-19T02:18:39;14.95;;;6.32;;
76023;SDS011;64719;52.124;6.226;2023-05-19T02:21:09;13.45;;;6.68;;
76023;SDS011;64719;52.124;6.226;2023-05-19T02:23:38;12.10;;;6.53;;
76023;SDS011;64719;52.124;6.226;2023-05-19T02:26:04;18.80;;;7.32;;
76023;SDS011;64719;52.124;6.226;2023-05-19T02:28:32;17.05;;;6.93;;
76023;SDS011;64719;52.124;6.226;2023-05-19T02:30:59;19.08;;;7.35;;
76023;SDS011;64719;52.124;6.226;2023-05-19T02:33:25;14.68;;;7.22;;
76023;SDS011;64719;52.124;6.226;2023-05-19T02:38:21;14.82;;;6.95;;
76023;SDS011;64719;52.124;6.226;2023-05-19T02:40:49;12.63;;;7.10;;
76023;SDS011;64719;52.124;6.226;2023-05-19T02:43:16;17.02;;;7.20;;
76023;SDS011;64719;52.124;6.226;2023-05-19T02:45:44;16.33;;;7.03;;
76023;SDS011;64719;52.124;6.226;2023-05-19T02:48:10;11.93;;;6.78;;
76023;SDS011;64719;52.124;6.226;2023-05-19T02:50:37;15.05;;;7.03;;
76023;SDS011;64719;52.124;6.226;2023-05-19T02:53:04;12.82;;;6.38;;
76023;SDS011;64719;52.124;6.226;2023-05-19T02:55:31;13.60;;;6.43;;
76023;SDS011;64719;52.124;6.226;2023-05-19T02:57:57;18.73;;;7.97;;
76023;SDS011;64719;52.124;6.226;2023-05-19T03:00:24;14.73;;;7.15;;
76023;SDS011;64719;52.124;6.226;2023-05-19T03:02:50;13.13;;;6.38;;
76023;SDS011;64719;52.124;6.226;2023-05-19T03:05:18;14.77;;;7.15;;
76023;SDS011;64719;52.124;6.226;2023-05-19T03:07:44;16.80;;;7.25;;
76023;SDS011;64719;52.124;6.226;2023-05-19T03:10:12;15.18;;;6.78;;
76023;SDS011;64719;52.124;6.226;2023-05-19T03:12:39;15.88;;;7.15;;
76023;SDS011;64719;52.124;6.226;2023-05-19T03:15:06;16.58;;;7.25;;
76023;SDS011;64719;52.124;6.226;2023-05-19T03:17:33;15.07;;;7.90;;
76023;SDS011;64719;52.124;6.226;2023-05-19T03:20:00;17.63;;;7.50;;
76023;SDS011;64719;52.124;6.226;2023-05-19T03:22:26;19.13;;;7.68;;
76023;SDS011;64719;52.124;6.226;2023-05-19T03:24:53;16.98;;;7.85;;
76023;SDS011;64719;52.124;6.226;2023-05-19T03:27:21;17.98;;;7.00;;
76023;SDS011;64719;52.124;6.226;2023-05-19T03:29:47;20.48;;;7.80;;
76023;SDS011;64719;52.124;6.226;2023-05-19T03:32:14;19.45;;;8.68;;
76023;SDS011;64719;52.124;6.226;2023-05-19T03:34:41;20.13;;;7.82;;
76023;SDS011;64719;52.124;6.226;2023-05-19T03:37:07;18.65;;;6.88;;
76023;SDS011;64719;52.124;6.226;2023-05-19T03:39:34;16.75;;;7.65;;
76023;SDS011;64719;52.124;6.226;2023-05-19T03:42:01;19.02;;;7.47;;
76023;SDS011;64719;52.124;6.226;2023-05-19T03:44:29;18.25;;;6.88;;
76023;SDS011;64719;52.124;6.226;2023-05-19T03:46:55;17.50;;;7.07;;
76023;SDS011;64719;52.124;6.226;2023-05-19T03:49:22;17.80;;;8.18;;
76023;SDS011;64719;52.124;6.226;2023-05-19T03:51:48;18.70;;;7.90;;
76023;SDS011;64719;52.124;6.226;2023-05-19T03:54:15;19.00;;;8.27;;
76023;SDS011;64719;52.124;6.226;2023-05-19T03:56:42;18.35;;;8.00;;
76023;SDS011;64719;52.124;6.226;2023-05-19T03:59:08;19.92;;;7.28;;
76023;SDS011;64719;52.124;6.226;2023-05-19T04:01:37;13.43;;;6.82;;
76023;SDS011;64719;52.124;6.226;2023-05-19T04:04:04;13.77;;;7.15;;
76023;SDS011;64719;52.124;6.226;2023-05-19T04:06:30;19.77;;;8.40;;
76023;SDS011;64719;52.124;6.226;2023-05-19T04:08:57;17.90;;;7.63;;
76023;SDS011;64719;52.124;6.226;2023-05-19T04:11:24;18.27;;;7.28;;
76023;SDS011;64719;52.124;6.226;2023-05-19T04:13:51;14.35;;;6.72;;
76023;SDS011;64719;52.124;6.226;2023-05-19T04:16:17;22.17;;;7.78;;
76023;SDS011;64719;52.124;6.226;2023-05-19T04:18:45;14.40;;;6.93;;
76023;SDS011;64719;52.124;6.226;2023-05-19T04:21:11;13.57;;;6.22;;
76023;SDS011;64719;52.124;6.226;2023-05-19T04:23:38;13.70;;;7.35;;
76023;SDS011;64719;52.124;6.226;2023-05-19T04:26:04;17.08;;;6.82;;
76023;SDS011;64719;52.124;6.226;2023-05-19T04:28:31;14.07;;;6.57;;
76023;SDS011;64719;52.124;6.226;2023-05-19T04:31:00;17.38;;;7.15;;
76023;SDS011;64719;52.124;6.226;2023-05-19T04:33:27;21.33;;;7.90;;
76023;SDS011;64719;52.124;6.226;2023-05-19T04:35:55;15.75;;;7.15;;
76023;SDS011;64719;52.124;6.226;2023-05-19T04:38:22;16.60;;;7.95;;
76023;SDS011;64719;52.124;6.226;2023-05-19T04:40:48;15.35;;;5.78;;
76023;SDS011;64719;52.124;6.226;2023-05-19T04:43:15;10.98;;;5.95;;
76023;SDS011;64719;52.124;6.226;2023-05-19T04:45:43;9.63;;;5.03;;
76023;SDS011;64719;52.124;6.226;2023-05-19T04:48:10;9.23;;;4.93;;
76023;SDS011;64719;52.124;6.226;2023-05-19T04:50:37;10.18;;;5.07;;
76023;SDS011;64719;52.124;6.226;2023-05-19T04:55:33;9.50;;;5.35;;
76023;SDS011;64719;52.124;6.226;2023-05-19T04:58:02;12.43;;;5.15;;
76023;SDS011;64719;52.124;6.226;2023-05-19T05:00:29;11.93;;;4.90;;
76023;SDS011;64719;52.124;6.226;2023-05-19T05:02:55;9.35;;;4.93;;
76023;SDS011;64719;52.124;6.226;2023-05-19T05:05:22;11.30;;;5.25;;
76023;SDS011;64719;52.124;6.226;2023-05-19T05:07:49;8.63;;;5.03;;
76023;SDS011;64719;52.124;6.226;2023-05-19T05:10:19;9.73;;;5.07;;
76023;SDS011;64719;52.124;6.226;2023-05-19T05:15:12;8.15;;;4.20;;
76023;SDS011;64719;52.124;6.226;2023-05-19T05:17:39;8.35;;;4.30;;
76023;SDS011;64719;52.124;6.226;2023-05-19T05:20:06;9.88;;;5.22;;
76023;SDS011;64719;52.124;6.226;2023-05-19T05:22:34;10.52;;;5.35;;
76023;SDS011;64719;52.124;6.226;2023-05-19T05:25:02;9.45;;;5.22;;
76023;SDS011;64719;52.124;6.226;2023-05-19T05:27:32;7.35;;;4.90;;
76023;SDS011;64719;52.124;6.226;2023-05-19T05:29:58;12.23;;;4.82;;
76023;SDS011;64719;52.124;6.226;2023-05-19T05:32:25;10.07;;;5.53;;
76023;SDS011;64719;52.124;6.226;2023-05-19T05:34:51;10.02;;;5.10;;
76023;SDS011;64719;52.124;6.226;2023-05-19T05:37:18;10.30;;;5.10;;
76023;SDS011;64719;52.124;6.226;2023-05-19T05:39:44;9.43;;;4.70;;
76023;SDS011;64719;52.124;6.226;2023-05-19T05:42:11;9.13;;;4.68;;
76023;SDS011;64719;52.124;6.226;2023-05-19T05:44:39;13.32;;;5.32;;
76023;SDS011;64719;52.124;6.226;2023-05-19T05:49:32;6.95;;;4.63;;
76023;SDS011;64719;52.124;6.226;2023-05-19T05:52:02;11.15;;;4.68;;
76023;SDS011;64719;52.124;6.226;2023-05-19T05:54:29;10.73;;;4.63;;
76023;SDS011;64719;52.124;6.226;2023-05-19T05:56:56;11.02;;;5.15;;
76023;SDS011;64719;52.124;6.226;2023-05-19T05:59:23;9.50;;;4.65;;
76023;SDS011;64719;52.124;6.226;2023-05-19T06:01:51;9.93;;;4.50;;
76023;SDS011;64719;52.124;6.226;2023-05-19T06:06:45;7.55;;;4.53;;
76023;SDS011;64719;52.124;6.226;2023-05-19T06:09:11;8.48;;;4.90;;
76023;SDS011;64719;52.124;6.226;2023-05-19T06:11:38;7.28;;;5.10;;
76023;SDS011;64719;52.124;6.226;2023-05-19T06:14:04;8.65;;;4.78;;
76023;SDS011;64719;52.124;6.226;2023-05-19T06:16:31;9.70;;;5.13;;
76023;SDS011;64719;52.124;6.226;2023-05-19T06:18:58;10.00;;;4.57;;
76023;SDS011;64719;52.124;6.226;2023-05-19T06:21:25;8.50;;;4.60;;
76023;SDS011;64719;52.124;6.226;2023-05-19T06:23:51;9.52;;;4.70;;
76023;SDS011;64719;52.124;6.226;2023-05-19T06:26:18;6.20;;;4.50;;
76023;SDS011;64719;52.124;6.226;2023-05-19T06:28:44;10.18;;;4.50;;
76023;SDS011;64719;52.124;6.226;2023-05-19T06:31:11;8.38;;;4.05;;
76023;SDS011;64719;52.124;6.226;2023-05-19T06:33:37;6.78;;;4.07;;
76023;SDS011;64719;52.124;6.226;2023-05-19T06:36:06;6.20;;;4.07;;
76023;SDS011;64719;52.124;6.226;2023-05-19T06:38:34;7.90;;;4.15;;
76023;SDS011;64719;52.124;6.226;2023-05-19T06:41:00;7.72;;;4.18;;
76023;SDS011;64719;52.124;6.226;2023-05-19T06:43:27;10.65;;;4.50;;
76023;SDS011;64719;52.124;6.226;2023-05-19T06:45:54;8.35;;;4.40;;
76023;SDS011;64719;52.124;6.226;2023-05-19T06:48:20;8.77;;;4.10;;
76023;SDS011;64719;52.124;6.226;2023-05-19T06:50:47;9.77;;;4.55;;
76023;SDS011;64719;52.124;6.226;2023-05-19T06:53:17;7.63;;;4.47;;
76023;SDS011;64719;52.124;6.226;2023-05-19T06:55:44;8.77;;;4.55;;
76023;SDS011;64719;52.124;6.226;2023-05-19T06:58:14;7.28;;;4.10;;
76023;SDS011;64719;52.124;6.226;2023-05-19T07:00:40;8.20;;;3.75;;
76023;SDS011;64719;52.124;6.226;2023-05-19T07:03:07;8.40;;;4.03;;
76023;SDS011;64719;52.124;6.226;2023-05-19T07:05:34;5.78;;;3.80;;
76023;SDS011;64719;52.124;6.226;2023-05-19T07:08:00;7.40;;;3.85;;
76023;SDS011;64719;52.124;6.226;2023-05-19T07:10:28;8.65;;;3.75;;
76023;SDS011;64719;52.124;6.226;2023-05-19T07:12:54;7.28;;;3.80;;
76023;SDS011;64719;52.124;6.226;2023-05-19T07:15:22;6.10;;;3.47;;
76023;SDS011;64719;52.124;6.226;2023-05-19T07:17:48;7.03;;;3.78;;
76023;SDS011;64719;52.124;6.226;2023-05-19T07:20:15;6.43;;;3.75;;
76023;SDS011;64719;52.124;6.226;2023-05-19T07:22:42;6.60;;;2.80;;
76023;SDS011;64719;52.124;6.226;2023-05-19T07:25:09;6.95;;;3.10;;
76023;SDS011;64719;52.124;6.226;2023-05-19T07:27:36;5.35;;;3.05;;
76023;SDS011;64719;52.124;6.226;2023-05-19T07:30:03;7.32;;;3.22;;
76023;SDS011;64719;52.124;6.226;2023-05-19T07:32:30;6.30;;;3.25;;
76023;SDS011;64719;52.124;6.226;2023-05-19T07:34:57;7.70;;;3.25;;
76023;SDS011;64719;52.124;6.226;2023-05-19T07:37:23;8.18;;;2.97;;
76023;SDS011;64719;52.124;6.226;2023-05-19T07:39:50;6.07;;;2.72;;
76023;SDS011;64719;52.124;6.226;2023-05-19T07:42:16;5.25;;;2.50;;
76023;SDS011;64719;52.124;6.226;2023-05-19T07:44:44;5.75;;;3.08;;
76023;SDS011;64719;52.124;6.226;2023-05-19T07:47:11;8.88;;;3.25;;
76023;SDS011;64719;52.124;6.226;2023-05-19T07:49:37;5.95;;;2.92;;
76023;SDS011;64719;52.124;6.226;2023-05-19T07:52:04;5.25;;;2.85;;
76023;SDS011;64719;52.124;6.226;2023-05-19T07:54:31;6.57;;;2.90;;
76023;SDS011;64719;52.124;6.226;2023-05-19T07:56:57;7.25;;;2.78;;
76023;SDS011;64719;52.124;6.226;2023-05-19T07:59:24;5.70;;;2.50;;
76023;SDS011;64719;52.124;6.226;2023-05-19T08:01:52;6.32;;;2.53;;
76023;SDS011;64719;52.124;6.226;2023-05-19T08:04:18;4.65;;;2.15;;
76023;SDS011;64719;52.124;6.226;2023-05-19T08:06:45;6.20;;;2.17;;
76023;SDS011;64719;52.124;6.226;2023-05-19T08:09:11;6.57;;;2.10;;
76023;SDS011;64719;52.124;6.226;2023-05-19T08:11:38;5.30;;;1.95;;
76023;SDS011;64719;52.124;6.226;2023-05-19T08:14:04;5.88;;;2.20;;
76023;SDS011;64719;52.124;6.226;2023-05-19T08:16:31;6.60;;;2.25;;
76023;SDS011;64719;52.124;6.226;2023-05-19T08:18:58;5.40;;;2.10;;
76023;SDS011;64719;52.124;6.226;2023-05-19T08:21:26;4.88;;;2.20;;
76023;SDS011;64719;52.124;6.226;2023-05-19T08:23:53;6.45;;;2.58;;
76023;SDS011;64719;52.124;6.226;2023-05-19T08:26:21;5.43;;;2.10;;
76023;SDS011;64719;52.124;6.226;2023-05-19T08:28:47;4.72;;;1.90;;
76023;SDS011;64719;52.124;6.226;2023-05-19T08:31:14;4.90;;;2.00;;
76023;SDS011;64719;52.124;6.226;2023-05-19T08:33:42;4.60;;;2.08;;
76023;SDS011;64719;52.124;6.226;2023-05-19T08:36:10;6.60;;;1.90;;
76023;SDS011;64719;52.124;6.226;2023-05-19T08:38:36;8.60;;;2.00;;
76023;SDS011;64719;52.124;6.226;2023-05-19T08:41:03;6.60;;;2.10;;
76023;SDS011;64719;52.124;6.226;2023-05-19T08:43:30;6.00;;;2.08;;
76023;SDS011;64719;52.124;6.226;2023-05-19T08:45:56;6.57;;;2.35;;
76023;SDS011;64719;52.124;6.226;2023-05-19T08:48:24;5.35;;;2.10;;
76023;SDS011;64719;52.124;6.226;2023-05-19T08:50:56;6.13;;;2.08;;
76023;SDS011;64719;52.124;6.226;2023-05-19T08:53:32;5.45;;;1.98;;
76023;SDS011;64719;52.124;6.226;2023-05-19T08:56:03;6.13;;;2.05;;
76023;SDS011;64719;52.124;6.226;2023-05-19T08:58:35;7.05;;;2.55;;
76023;SDS011;64719;52.124;6.226;2023-05-19T09:01:04;3.40;;;1.48;;
76023;SDS011;64719;52.124;6.226;2023-05-19T09:03:32;6.32;;;2.17;;
76023;SDS011;64719;52.124;6.226;2023-05-19T09:06:02;5.50;;;1.60;;
76023;SDS011;64719;52.124;6.226;2023-05-19T09:08:32;4.75;;;1.88;;
76023;SDS011;64719;52.124;6.226;2023-05-19T09:10:58;6.53;;;1.80;;
76023;SDS011;64719;52.124;6.226;2023-05-19T09:13:25;5.07;;;1.80;;
76023;SDS011;64719;52.124;6.226;2023-05-19T09:15:51;6.50;;;2.22;;
76023;SDS011;64719;52.124;6.226;2023-05-19T09:18:18;4.07;;;1.65;;
76023;SDS011;64719;52.124;6.226;2023-05-19T09:20:45;5.95;;;1.80;;
76023;SDS011;64719;52.124;6.226;2023-05-19T09:23:11;5.53;;;1.88;;
76023;SDS011;64719;52.124;6.226;2023-05-19T09:25:46;5.47;;;1.95;;
76023;SDS011;64719;52.124;6.226;2023-05-19T09:28:13;5.68;;;1.95;;
76023;SDS011;64719;52.124;6.226;2023-05-19T09:30:40;6.50;;;2.13;;
76023;SDS011;64719;52.124;6.226;2023-05-19T09:33:07;6.03;;;1.88;;
76023;SDS011;64719;52.124;6.226;2023-05-19T09:35:34;5.70;;;2.10;;
76023;SDS011;64719;52.124;6.226;2023-05-19T09:38:00;6.15;;;1.85;;
76023;SDS011;64719;52.124;6.226;2023-05-19T09:40:27;5.50;;;1.92;;
76023;SDS011;64719;52.124;6.226;2023-05-19T09:42:55;4.75;;;1.63;;
76023;SDS011;64719;52.124;6.226;2023-05-19T09:45:21;5.03;;;1.67;;
76023;SDS011;64719;52.124;6.226;2023-05-19T09:47:48;5.22;;;2.10;;
76023;SDS011;64719;52.124;6.226;2023-05-19T09:50:15;5.47;;;1.80;;
76023;SDS011;64719;52.124;6.226;2023-05-19T09:52:42;5.65;;;2.13;;
76023;SDS011;64719;52.124;6.226;2023-05-19T09:55:10;5.82;;;1.90;;
76023;SDS011;64719;52.124;6.226;2023-05-19T09:57:37;4.13;;;1.77;;
76023;SDS011;64719;52.124;6.226;2023-05-19T10:00:07;5.55;;;1.63;;
76023;SDS011;64719;52.124;6.226;2023-05-19T10:02:38;6.68;;;2.00;;
76023;SDS011;64719;52.124;6.226;2023-05-19T10:05:07;5.93;;;2.10;;
76023;SDS011;64719;52.124;6.226;2023-05-19T10:07:35;5.57;;;2.03;;
76023;SDS011;64719;52.124;6.226;2023-05-19T10:10:02;6.10;;;1.85;;
76023;SDS011;64719;52.124;6.226;2023-05-19T10:12:31;7.38;;;2.20;;
76023;SDS011;64719;52.124;6.226;2023-05-19T10:14:58;5.93;;;1.75;;
76023;SDS011;64719;52.124;6.226;2023-05-19T10:17:26;4.93;;;1.95;;
76023;SDS011;64719;52.124;6.226;2023-05-19T10:19:53;4.43;;;1.92;;
76023;SDS011;64719;52.124;6.226;2023-05-19T10:22:20;7.25;;;1.90;;
76023;SDS011;64719;52.124;6.226;2023-05-19T10:24:46;5.60;;;2.00;;
76023;SDS011;64719;52.124;6.226;2023-05-19T10:27:13;5.00;;;2.20;;
76023;SDS011;64719;52.124;6.226;2023-05-19T10:29:43;9.38;;;1.98;;
76023;SDS011;64719;52.124;6.226;2023-05-19T10:32:15;5.13;;;1.90;;
76023;SDS011;64719;52.124;6.226;2023-05-19T10:35:03;5.53;;;1.88;;
76023;SDS011;64719;52.124;6.226;2023-05-19T10:37:44;4.15;;;1.83;;
76023;SDS011;64719;52.124;6.226;2023-05-19T10:40:17;5.22;;;2.30;;
76023;SDS011;64719;52.124;6.226;2023-05-19T10:42:52;5.85;;;1.80;;
76023;SDS011;64719;52.124;6.226;2023-05-19T10:45:32;4.55;;;1.90;;
76023;SDS011;64719;52.124;6.226;2023-05-19T10:48:01;5.65;;;1.92;;
76023;SDS011;64719;52.124;6.226;2023-05-19T10:50:33;4.60;;;1.90;;
76023;SDS011;64719;52.124;6.226;2023-05-19T10:53:01;5.22;;;2.10;;
76023;SDS011;64719;52.124;6.226;2023-05-19T10:55:46;5.90;;;2.15;;
76023;SDS011;64719;52.124;6.226;2023-05-19T11:01:02;5.68;;;2.10;;
76023;SDS011;64719;52.124;6.226;2023-05-19T11:03:44;5.25;;;2.45;;
76023;SDS011;64719;52.124;6.226;2023-05-19T11:06:17;6.75;;;2.20;;
76023;SDS011;64719;52.124;6.226;2023-05-19T11:08:53;7.30;;;2.50;;
76023;SDS011;64719;52.124;6.226;2023-05-19T11:11:21;5.22;;;2.63;;
76023;SDS011;64719;52.124;6.226;2023-05-19T11:13:49;5.68;;;2.17;;
76023;SDS011;64719;52.124;6.226;2023-05-19T11:16:25;4.88;;;2.05;;
76023;SDS011;64719;52.124;6.226;2023-05-19T11:18:52;5.20;;;2.20;;
76023;SDS011;64719;52.124;6.226;2023-05-19T11:21:20;5.60;;;2.40;;
76023;SDS011;64719;52.124;6.226;2023-05-19T11:23:47;4.55;;;2.05;;
76023;SDS011;64719;52.124;6.226;2023-05-19T11:26:13;5.85;;;2.13;;
76023;SDS011;64719;52.124;6.226;2023-05-19T11:28:40;5.32;;;1.95;;
76023;SDS011;64719;52.124;6.226;2023-05-19T11:31:07;5.22;;;2.50;;
76023;SDS011;64719;52.124;6.226;2023-05-19T11:33:35;4.22;;;2.40;;
76023;SDS011;64719;52.124;6.226;2023-05-19T11:36:03;4.63;;;2.28;;
76023;SDS011;64719;52.124;6.226;2023-05-19T11:38:31;4.55;;;2.15;;
76023;SDS011;64719;52.124;6.226;2023-05-19T11:41:00;5.30;;;2.30;;
76023;SDS011;64719;52.124;6.226;2023-05-19T11:43:26;4.95;;;2.60;;
76023;SDS011;64719;52.124;6.226;2023-05-19T11:45:53;4.97;;;2.38;;
76023;SDS011;64719;52.124;6.226;2023-05-19T11:48:20;6.03;;;2.85;;
76023;SDS011;64719;52.124;6.226;2023-05-19T11:50:46;6.28;;;2.72;;
76023;SDS011;64719;52.124;6.226;2023-05-19T11:53:14;7.57;;;2.80;;
76023;SDS011;64719;52.124;6.226;2023-05-19T11:55:43;5.32;;;2.70;;
76023;SDS011;64719;52.124;6.226;2023-05-19T11:58:10;6.70;;;2.63;;
76023;SDS011;64719;52.124;6.226;2023-05-19T12:00:37;4.57;;;2.05;;
76023;SDS011;64719;52.124;6.226;2023-05-19T12:03:05;6.05;;;2.67;;
76023;SDS011;64719;52.124;6.226;2023-05-19T12:05:32;6.45;;;2.60;;
76023;SDS011;64719;52.124;6.226;2023-05-19T12:08:02;4.60;;;1.98;;
76023;SDS011;64719;52.124;6.226;2023-05-19T12:10:29;5.45;;;1.98;;
76023;SDS011;64719;52.124;6.226;2023-05-19T12:12:59;6.25;;;2.30;;
76023;SDS011;64719;52.124;6.226;2023-05-19T12:15:26;4.07;;;1.85;;
76023;SDS011;64719;52.124;6.226;2023-05-19T12:17:55;5.50;;;1.92;;
76023;SDS011;64719;52.124;6.226;2023-05-19T12:20:23;3.63;;;1.73;;
76023;SDS011;64719;52.124;6.226;2023-05-19T12:22:50;5.35;;;2.13;;
76023;SDS011;64719;52.124;6.226;2023-05-19T12:25:17;6.35;;;2.28;;
76023;SDS011;64719;52.124;6.226;2023-05-19T12:27:43;4.88;;;1.85;;
76023;SDS011;64719;52.124;6.226;2023-05-19T12:30:13;5.68;;;2.00;;
76023;SDS011;64719;52.124;6.226;2023-05-19T12:32:41;6.00;;;2.00;;
76023;SDS011;64719;52.124;6.226;2023-05-19T12:37:35;5.28;;;2.13;;
76023;SDS011;64719;52.124;6.226;2023-05-19T12:40:06;3.60;;;1.92;;
76023;SDS011;64719;52.124;6.226;2023-05-19T12:42:34;6.40;;;2.25;;
76023;SDS011;64719;52.124;6.226;2023-05-19T12:45:02;8.05;;;2.03;;
76023;SDS011;64719;52.124;6.226;2023-05-19T12:47:31;7.35;;;1.92;;
76023;SDS011;64719;52.124;6.226;2023-05-19T12:50:02;7.35;;;2.10;;
76023;SDS011;64719;52.124;6.226;2023-05-19T12:52:30;5.90;;;2.13;;
76023;SDS011;64719;52.124;6.226;2023-05-19T12:54:59;4.05;;;1.90;;
76023;SDS011;64719;52.124;6.226;2023-05-19T12:57:28;5.13;;;1.73;;
76023;SDS011;64719;52.124;6.226;2023-05-19T12:59:59;4.93;;;2.10;;
76023;SDS011;64719;52.124;6.226;2023-05-19T13:02:25;8.07;;;2.22;;
76023;SDS011;64719;52.124;6.226;2023-05-19T13:04:53;6.35;;;1.80;;
76023;SDS011;64719;52.124;6.226;2023-05-19T13:07:20;7.93;;;2.13;;
76023;SDS011;64719;52.124;6.226;2023-05-19T13:09:46;6.85;;;1.80;;
76023;SDS011;64719;52.124;6.226;2023-05-19T13:12:13;4.70;;;2.17;;
76023;SDS011;64719;52.124;6.226;2023-05-19T13:14:40;4.75;;;1.70;;
76023;SDS011;64719;52.124;6.226;2023-05-19T13:17:07;6.35;;;1.80;;
76023;SDS011;64719;52.124;6.226;2023-05-19T13:19:34;6.40;;;2.10;;
76023;SDS011;64719;52.124;6.226;2023-05-19T13:22:02;5.00;;;1.88;;
76023;SDS011;64719;52.124;6.226;2023-05-19T13:24:28;4.82;;;2.00;;
76023;SDS011;64719;52.124;6.226;2023-05-19T13:26:55;5.90;;;2.22;;
76023;SDS011;64719;52.124;6.226;2023-05-19T13:29:21;3.47;;;1.73;;
76023;SDS011;64719;52.124;6.226;2023-05-19T13:31:48;7.38;;;2.28;;
76023;SDS011;64719;52.124;6.226;2023-05-19T13:34:14;3.60;;;1.73;;
76023;SDS011;64719;52.124;6.226;2023-05-19T13:36:43;6.50;;;2.10;;
76023;SDS011;64719;52.124;6.226;2023-05-19T13:39:13;3.95;;;1.95;;
76023;SDS011;64719;52.124;6.226;2023-05-19T13:41:39;4.97;;;1.70;;
76023;SDS011;64719;52.124;6.226;2023-05-19T13:44:06;6.40;;;1.80;;
76023;SDS011;64719;52.124;6.226;2023-05-19T13:46:32;6.13;;;2.25;;
76023;SDS011;64719;52.124;6.226;2023-05-19T13:48:59;5.55;;;1.95;;
76023;SDS011;64719;52.124;6.226;2023-05-19T13:51:25;4.28;;;1.85;;
76023;SDS011;64719;52.124;6.226;2023-05-19T13:53:52;5.28;;;1.80;;
76023;SDS011;64719;52.124;6.226;2023-05-19T13:56:20;4.90;;;1.98;;
76023;SDS011;64719;52.124;6.226;2023-05-19T13:58:46;5.10;;;2.17;;
76023;SDS011;64719;52.124;6.226;2023-05-19T14:01:13;4.63;;;2.03;;
76023;SDS011;64719;52.124;6.226;2023-05-19T14:03:39;6.18;;;2.20;;
76023;SDS011;64719;52.124;6.226;2023-05-19T14:06:06;2.70;;;1.73;;
76023;SDS011;64719;52.124;6.226;2023-05-19T14:08:33;4.70;;;2.10;;
76023;SDS011;64719;52.124;6.226;2023-05-19T14:11:00;4.80;;;2.13;;
76023;SDS011;64719;52.124;6.226;2023-05-19T14:13:28;7.95;;;2.20;;
76023;SDS011;64719;52.124;6.226;2023-05-19T14:15:54;4.25;;;1.90;;
76023;SDS011;64719;52.124;6.226;2023-05-19T14:18:21;6.07;;;2.03;;
76023;SDS011;64719;52.124;6.226;2023-05-19T14:20:47;5.05;;;2.05;;
76023;SDS011;64719;52.124;6.226;2023-05-19T14:23:14;5.22;;;2.25;;
76023;SDS011;64719;52.124;6.226;2023-05-19T14:25:41;4.93;;;2.13;;
76023;SDS011;64719;52.124;6.226;2023-05-19T14:28:07;5.68;;;2.10;;
76023;SDS011;64719;52.124;6.226;2023-05-19T14:30:36;4.50;;;2.45;;
76023;SDS011;64719;52.124;6.226;2023-05-19T14:33:02;6.85;;;2.90;;
76023;SDS011;64719;52.124;6.226;2023-05-19T14:35:29;4.38;;;2.15;;
76023;SDS011;64719;52.124;6.226;2023-05-19T14:37:55;5.22;;;2.00;;
76023;SDS011;64719;52.124;6.226;2023-05-19T14:40:22;5.60;;;2.10;;
76023;SDS011;64719;52.124;6.226;2023-05-19T14:42:48;5.00;;;1.85;;
76023;SDS011;64719;52.124;6.226;2023-05-19T14:45:15;5.03;;;2.40;;
76023;SDS011;64719;52.124;6.226;2023-05-19T14:47:43;5.15;;;2.15;;
76023;SDS011;64719;52.124;6.226;2023-05-19T14:50:09;4.38;;;1.80;;
76023;SDS011;64719;52.124;6.226;2023-05-19T14:52:36;2.40;;;1.75;;
76023;SDS011;64719;52.124;6.226;2023-05-19T14:55:03;6.25;;;2.25;;
76023;SDS011;64719;52.124;6.226;2023-05-19T14:57:30;4.72;;;1.70;;
76023;SDS011;64719;52.124;6.226;2023-05-19T14:59:56;4.85;;;2.10;;
76023;SDS011;64719;52.124;6.226;2023-05-19T15:02:23;4.13;;;2.08;;
76023;SDS011;64719;52.124;6.226;2023-05-19T15:04:50;2.72;;;1.67;;
76023;SDS011;64719;52.124;6.226;2023-05-19T15:09:43;6.10;;;2.05;;
76023;SDS011;64719;52.124;6.226;2023-05-19T15:12:10;4.00;;;1.90;;